Latest Weather Observations for Hamilton

IDV60801

Issued at 10:35 pm EST Thursday 24 April 2014 (issued every 30 minutes, with the page automatically refreshed every 10 minutes)

About weather observations | Map of weather stations | Latest weather observations for VIC | Other Formats
Station Details ID: 090173 Name: HAMILTON AIRPORT Lat: -37.65 Lon: 142.06 Height: 241.1 m
Data from the previous 72 hours. | See also: Recent months at Hamilton
Date/Time
EST
Temp
°C
App
Temp
°C
Dew
Point
Rel
Hum
%
Delta-T
°C
Wind Press
QNH
hPa
Press
MSL
hPa
Rain
since 9 am
mm
Dir
 
Spd
km/h
Gust
km/h
Spd
kts
Gust
kts
24/10:30pm 5.5 1.7 4.0 90 0.6 E 13 17 7 9 1021.3 - 0.2
24/10:00pm 5.7 2.7 4.0 89 0.7 ESE 9 11 5 6 1021.7 - 0.2
24/09:30pm 5.9 2.5 4.1 88 0.8 ESE 11 15 6 8 1021.4 - 0.2
24/09:00pm 6.8 3.5 4.8 87 0.9 ESE 11 13 6 7 1021.5 1021.3 0.2
24/08:30pm 7.1 3.8 4.6 84 1.1 SE 11 13 6 7 1021.3 - 0.0
24/08:00pm 7.9 4.3 5.2 83 1.2 SE 13 15 7 8 1020.9 - 0.0
24/07:30pm 7.6 4.4 4.9 83 1.2 SE 11 13 6 7 1020.5 - 0.0
24/07:00pm 8.4 5.2 5.0 79 1.5 SSE 11 13 6 7 1020.4 - 0.0
24/06:30pm 9.8 5.9 5.2 73 2.1 SSE 15 19 8 10 1020.0 - 0.0
24/06:00pm 10.1 6.1 4.9 70 2.4 SSE 15 17 8 9 1019.5 1019.3 0.0
24/05:30pm 11.5 7.6 5.2 65 2.9 S 15 17 8 9 1019.2 - 0.0
24/05:00pm 12.6 7.9 5.3 61 3.4 S 19 22 10 12 1019.0 - 0.0
24/04:30pm 14.2 9.8 4.8 53 4.4 S 17 20 9 11 1018.7 - 0.0
24/04:00pm 13.5 9.0 4.4 54 4.2 S 17 20 9 11 1018.5 - 0.0
24/03:30pm 13.5 8.7 4.9 56 4.0 S 19 24 10 13 1018.4 - 0.0
24/03:00pm 15.4 11.3 4.2 47 5.2 SW 15 22 8 12 1018.1 1017.9 0.0
24/02:30pm 14.0 9.1 5.1 55 4.2 SSE 20 28 11 15 1018.0 - 0.0
24/02:00pm 15.0 9.4 5.5 53 4.6 S 24 32 13 17 1018.2 - 0.0
24/01:30pm 15.6 10.1 5.8 52 4.8 S 24 33 13 18 1018.1 - 0.0
24/01:00pm 15.2 10.2 4.6 49 5.0 WSW 20 28 11 15 1018.1 - 0.0
24/12:30pm 13.5 7.9 3.6 51 4.5 S 22 28 12 15 1018.4 - 0.0
24/12:00pm 14.8 8.5 3.9 48 5.1 SSW 26 35 14 19 1018.3 1018.1 0.0
24/11:30am 13.9 7.5 3.1 48 4.9 SSW 26 37 14 20 1018.3 - 0.0
24/11:00am 13.7 7.7 3.2 49 4.8 SSW 24 35 13 19 1018.1 - 0.0
24/10:30am 13.6 7.5 4.7 55 4.2 SSW 26 35 14 19 1018.0 - 0.0
24/10:00am 12.9 7.3 5.3 60 3.6 SSW 24 33 13 18 1017.8 - 0.0
24/09:30am 11.9 7.2 6.0 67 2.8 SW 20 28 11 15 1017.6 - 0.0
24/09:00am 11.4 7.9 7.3 76 2.0 SW 15 20 8 11 1017.3 1017.1 2.4
24/08:30am 11.3 8.4 8.2 81 1.5 SW 13 19 7 10 1016.6 - 2.4
24/08:00am 10.6 7.9 9.0 90 0.8 SW 13 20 7 11 1016.1 - 2.4
24/07:30am 10.6 7.2 9.2 91 0.7 SW 17 22 9 12 1015.2 - 2.4
24/07:00am 11.1 7.5 9.7 91 0.7 SW 19 24 10 13 1014.4 - 2.4
24/06:30am 11.1 7.0 10.0 93 0.6 SW 22 30 12 16 1013.9 - 2.4
24/06:03am 11.5 7.2 10.6 94 0.5 SW 24 35 13 19 1013.3 - 2.4
24/06:00am 11.5 6.8 10.6 94 0.5 SW 26 35 14 19 1013.3 1013.1 2.4
24/05:55am 11.5 6.0 10.6 94 0.5 SW 30 37 16 20 1013.2 - 2.4
24/05:37am 12.2 6.5 11.3 94 0.5 WSW 32 50 17 27 1012.6 - 2.2
24/05:30am 12.7 8.3 11.8 94 0.5 W 26 37 14 20 1012.3 - 1.8
24/05:14am 12.8 8.0 11.7 93 0.6 W 28 43 15 23 1011.9 - 1.4
24/05:00am 13.0 9.7 11.6 91 0.8 W 20 28 11 15 1011.6 - 0.6
24/04:30am 12.8 8.9 10.7 87 1.1 NW 22 32 12 17 1011.2 - 0.0
24/04:29am 12.8 8.9 10.7 87 1.1 NW 22 32 12 17 1011.2 - 0.0
24/04:00am 12.7 8.6 10.1 84 1.4 NW 22 32 12 17 1011.1 - 0.0
24/03:30am 12.3 7.6 9.1 81 1.6 NW 24 32 13 17 1011.1 - 0.0
24/03:00am 11.9 7.4 8.6 80 1.7 NW 22 28 12 15 1011.2 1010.9 0.0
24/02:30am 12.2 7.7 8.5 78 1.9 NW 22 30 12 16 1011.2 - 0.0
24/02:00am 12.7 8.0 7.6 71 2.5 NW 22 26 12 14 1011.4 - 0.0
24/01:30am 13.0 8.1 7.0 67 2.9 NW 22 30 12 16 1011.6 - 0.0
24/01:00am 12.8 7.8 6.4 65 3.1 NW 22 30 12 16 1011.8 - 0.0
24/12:30am 12.9 7.4 6.0 63 3.3 NW 24 32 13 17 1011.9 - 0.0
24/12:00am 12.3 7.6 5.9 65 3.0 NNW 20 28 11 15 1012.0 1011.7 0.0
 
Date/Time
EST
Temp
°C
App
Temp
°C
Dew
Point
Rel
Hum
%
Delta-T
°C
Wind Press
QNH
hPa
Press
MSL
hPa
Rain
since 9 am
mm
Dir
 
Spd
km/h
Gust
km/h
Spd
kts
Gust
kts
23/11:30pm 11.4 6.9 5.9 69 2.6 NNW 19 24 10 13 1012.3 - 0.0
23/11:00pm 11.2 7.0 5.9 70 2.5 NNW 17 24 9 13 1012.7 - 0.0
23/10:30pm 12.0 8.0 6.5 69 2.6 NNW 17 20 9 11 1013.0 - 0.0
23/10:00pm 11.8 7.4 6.5 70 2.5 NW 19 26 10 14 1013.2 - 0.0
23/09:30pm 11.9 8.0 7.2 73 2.3 NNW 17 20 9 11 1013.2 - 0.0
23/09:00pm 10.9 7.8 7.2 78 1.8 NW 13 15 7 8 1013.3 1013.1 0.0
23/08:30pm 10.4 7.3 7.1 80 1.6 NNW 13 15 7 8 1013.3 - 0.0
23/08:00pm 10.2 7.4 6.9 80 1.6 NNW 11 13 6 7 1013.4 - 0.0
23/07:30pm 10.8 7.6 6.9 77 1.9 NNW 13 15 7 8 1013.4 - 0.0
23/07:00pm 11.7 8.9 7.0 73 2.3 NNW 11 13 6 7 1013.2 - 0.0
23/06:30pm 12.5 9.8 7.2 70 2.6 NNW 11 13 6 7 1013.2 - 0.0
23/06:00pm 13.8 10.3 7.3 65 3.2 NW 15 19 8 10 1013.2 1013.0 0.0
23/05:30pm 14.6 10.3 7.2 61 3.7 NW 19 26 10 14 1013.2 - 0.0
23/05:00pm 15.4 10.6 7.4 59 4.0 NW 22 32 12 17 1013.1 - 0.0
23/04:30pm 16.8 12.4 7.2 53 4.8 NW 20 24 11 13 1013.2 - 0.0
23/04:00pm 16.4 12.0 7.6 56 4.5 NW 20 26 11 14 1013.4 - 0.0
23/03:30pm 17.1 12.3 7.2 52 5.0 NW 22 32 12 17 1013.7 - 0.0
23/03:00pm 17.3 12.2 7.6 53 4.9 NNW 24 37 13 20 1013.8 1013.6 0.0
23/02:30pm 16.4 11.2 7.3 55 4.6 NNW 24 33 13 18 1014.1 - 0.0
23/02:00pm 15.9 11.7 8.2 60 3.9 WNW 20 28 11 15 1014.6 - 0.0
23/01:30pm 15.8 11.1 7.6 58 4.1 WNW 22 28 12 15 1014.9 - 0.0
23/01:00pm 15.3 10.9 7.3 59 4.0 NW 20 30 11 16 1015.2 - 0.0
23/12:30pm 15.2 10.9 8.0 62 3.7 NW 20 32 11 17 1015.8 - 0.0
23/12:00pm 14.9 10.8 7.9 63 3.5 NW 19 30 10 16 1016.2 1015.9 0.0
23/11:30am 13.9 10.4 8.9 72 2.6 NW 17 30 9 16 1016.7 - 0.0
23/11:00am 13.6 9.8 8.9 73 2.4 NNW 19 24 10 13 1017.0 - 0.0
23/10:58am 13.4 9.7 9.3 76 2.1 NW 19 24 10 13 1017.1 - 0.0
23/10:42am 13.1 10.3 10.1 82 1.6 NW 15 20 8 11 1017.4 - 0.0
23/10:30am 13.4 10.8 10.8 84 1.4 NW 15 20 8 11 1017.5 - 0.0
23/10:00am 11.7 9.5 10.9 95 0.4 NNW 13 19 7 10 1017.8 - 0.0
23/09:30am 10.6 8.6 10.3 98 0.2 NNW 11 13 6 7 1017.7 - 0.0
23/09:00am 9.0 6.7 8.9 99 0.0 N 11 13 6 7 1017.7 1017.5 0.2
23/08:30am 7.4 5.1 7.3 99 0.0 N 9 11 5 6 1017.6 - 0.2
23/08:00am 6.3 3.7 6.2 99 0.0 N 9 11 5 6 1017.4 - 0.2
23/07:30am 4.4 1.0 4.1 98 0.1 N 11 13 6 7 1017.1 - 0.2
23/07:27am 4.5 1.1 4.2 98 0.1 NNW 11 13 6 7 1017.2 - 0.2
23/07:00am 3.6 0.8 3.3 98 0.1 NNW 7 9 4 5 1017.2 - 0.2
23/06:30am 4.3 1.6 3.9 97 0.2 NNW 7 9 4 5 1017.0 - 0.2
23/06:20am 4.5 1.9 4.2 98 0.1 NNW 7 9 4 5 1017.1 - 0.2
23/06:00am 3.4 0.8 3.0 97 0.2 WNW 6 7 3 4 1017.1 1016.9 0.2
23/05:30am 4.9 2.4 4.6 98 0.1 N 7 9 4 5 1016.8 - 0.2
23/05:00am 5.0 2.5 4.6 97 0.2 N 7 9 4 5 1016.4 - 0.2
23/04:30am 4.9 1.6 4.5 97 0.2 N 11 13 6 7 1016.6 - 0.2
23/04:00am 5.1 2.2 4.7 97 0.2 N 9 11 5 6 1016.6 - 0.2
23/03:30am 5.4 2.6 5.0 97 0.2 N 9 9 5 5 1016.7 - 0.2
23/03:09am 5.8 3.1 5.4 97 0.2 N 9 9 5 5 1016.9 - 0.2
23/03:00am 5.8 3.4 5.4 97 0.2 N 7 9 4 5 1016.9 1016.7 0.2
23/02:30am 4.9 2.3 4.3 96 0.3 NW 7 9 4 5 1017.0 - 0.2
23/02:27am 4.8 2.2 4.2 96 0.3 NNW 7 9 4 5 1017.1 - 0.2
23/02:00am 6.7 5.8 6.1 96 0.3 CALM 0 0 0 0 1017.1 - 0.2
23/01:40am 6.2 5.2 5.6 96 0.3 CALM 0 6 0 3 1017.2 - 0.2
23/01:35am 6.2 4.4 5.6 96 0.3 NW 4 6 2 3 1017.3 - 0.2
23/01:30am 6.2 4.0 5.5 95 0.3 NW 6 7 3 4 1017.4 - 0.2
23/01:00am 6.8 4.8 6.1 95 0.3 NNW 6 7 3 4 1017.8 - 0.2
23/12:30am 6.3 3.9 5.4 94 0.4 N 7 9 4 5 1018.0 - 0.2
23/12:25am 6.7 4.6 5.8 94 0.4 NNW 6 7 3 4 1017.9 - 0.2
23/12:22am 7.0 5.0 6.3 95 0.3 NNW 6 7 3 4 1017.9 - 0.2
23/12:10am 6.8 4.7 5.9 94 0.4 N 6 7 3 4 1018.0 - 0.2
23/12:00am 7.5 6.3 6.6 94 0.4 SSW 2 7 1 4 1018.0 1017.8 0.2
 
Date/Time
EST
Temp
°C
App
Temp
°C
Dew
Point
Rel
Hum
%
Delta-T
°C
Wind Press
QNH
hPa
Press
MSL
hPa
Rain
since 9 am
mm
Dir
 
Spd
km/h
Gust
km/h
Spd
kts
Gust
kts
22/11:30pm 7.1 6.2 6.0 93 0.5 CALM 0 0 0 0 1018.2 - 0.2
22/11:00pm 7.8 7.0 6.4 91 0.6 CALM 0 0 0 0 1018.4 - 0.2
22/10:30pm 8.7 8.1 7.2 90 0.7 CALM 0 0 0 0 1018.5 - 0.2
22/10:00pm 9.1 7.7 7.1 87 1.0 S 4 6 2 3 1018.6 - 0.2
22/09:30pm 9.7 7.7 7.3 85 1.2 S 7 9 4 5 1018.5 - 0.2
22/09:00pm 10.0 7.7 7.6 85 1.2 S 9 9 5 5 1018.3 1018.1 0.2
22/08:30pm 9.8 7.1 7.4 85 1.2 S 11 11 6 6 1018.2 - 0.2
22/08:00pm 10.5 8.2 7.6 82 1.4 S 9 11 5 6 1018.0 - 0.2
22/07:30pm 10.7 8.4 7.6 81 1.5 S 9 11 5 6 1017.8 - 0.2
22/07:00pm 10.6 8.3 7.3 80 1.6 S 9 11 5 6 1017.5 - 0.2
22/06:30pm 11.7 9.3 7.2 74 2.2 S 9 11 5 6 1017.2 - 0.2
22/06:00pm 12.3 9.6 7.4 72 2.4 S 11 15 6 8 1016.9 1016.7 0.2
22/05:30pm 13.7 11.1 7.7 67 3.0 SW 11 15 6 8 1016.6 - 0.2
22/05:00pm 15.8 12.2 8.5 62 3.8 SSW 17 20 9 11 1016.3 - 0.2
22/04:30pm 15.1 10.3 7.2 59 3.9 SW 22 28 12 15 1016.2 - 0.2
22/04:00pm 16.7 12.8 8.7 59 4.2 SSW 19 26 10 14 1015.9 - 0.2
22/03:30pm 16.4 11.7 9.1 62 3.8 SSW 24 32 13 17 1015.6 - 0.2
22/03:00pm 16.7 12.3 8.9 60 4.1 SSW 22 28 12 15 1015.2 1015.0 0.2
22/02:30pm 16.8 12.7 8.8 59 4.2 SW 20 26 11 14 1015.1 - 0.2
22/02:00pm 16.7 12.7 8.4 58 4.3 SW 19 26 10 14 1015.0 - 0.2
22/01:30pm 16.9 12.4 8.6 58 4.3 SW 22 28 12 15 1015.0 - 0.2
22/01:00pm 18.3 14.9 9.1 55 4.9 WSW 17 28 9 15 1015.2 - 0.2
22/12:30pm 18.1 14.2 10.7 62 4.0 WSW 22 30 12 16 1015.5 - 0.2
22/12:00pm 17.7 14.6 11.5 67 3.4 W 19 32 10 17 1015.7 1015.4 0.2
22/11:30am 17.0 15.1 11.7 71 2.9 SW 13 20 7 11 1015.8 - 0.2
22/11:00am 15.2 12.4 11.4 78 2.1 SW 17 24 9 13 1015.9 - 0.0
22/10:36am 15.2 13.1 12.5 84 1.5 SW 15 20 8 11 1015.8 - 0.0
22/10:30am 15.6 14.3 13.6 88 1.1 SW 13 17 7 9 1015.7 - 0.0
22/10:00am 14.1 12.1 12.8 92 0.7 SSW 15 19 8 10 1015.6 - 0.0
22/09:30am 14.2 12.3 12.9 92 0.7 SW 15 17 8 9 1015.5 - 0.0
22/09:22am 14.1 12.1 12.8 92 0.7 SW 15 20 8 11 1015.3 - 0.0
22/09:00am 13.8 12.2 12.9 94 0.5 WSW 13 15 7 8 1015.2 1015.0 14.4
22/08:30am 13.6 10.8 12.5 93 0.6 SW 19 22 10 12 1015.0 - 14.4
22/08:00am 14.1 12.1 12.8 92 0.7 W 15 22 8 12 1014.3 - 14.4
22/07:30am 14.1 11.7 12.8 92 0.7 WNW 17 22 9 12 1014.0 - 14.4
22/07:27am 14.1 11.4 12.8 92 0.7 WNW 19 22 10 12 1014.0 - 14.4
22/07:00am 13.9 11.9 12.8 93 0.6 W 15 24 8 13 1013.6 - 14.4
22/06:30am 13.8 11.5 12.9 94 0.5 WNW 17 20 9 11 1013.3 - 14.4
22/06:00am 13.6 11.2 12.8 95 0.4 NNW 17 20 9 11 1013.1 1012.8 14.4
22/05:30am 13.6 11.2 12.7 94 0.5 W 17 24 9 13 1012.8 - 14.4
22/05:00am 13.7 9.6 12.8 94 0.5 N 26 33 14 18 1012.2 - 14.2
22/04:30am 13.6 12.0 12.8 95 0.4 N 13 17 7 9 1012.8 - 12.2
22/04:07am 13.8 11.9 12.9 94 0.5 WNW 15 26 8 14 1012.9 - 11.6
22/04:00am 13.8 11.9 12.9 94 0.5 W 15 26 8 14 1012.9 - 11.2
22/03:56am 13.8 11.9 12.9 94 0.5 W 15 20 8 11 1013.0 - 11.2
22/03:30am 13.6 12.0 12.7 94 0.5 W 13 17 7 9 1013.1 - 8.0
22/03:00am 13.1 10.8 11.8 92 0.7 N 15 17 8 9 1011.9 1011.6 8.0
22/02:30am 13.7 9.9 12.3 91 0.8 N 24 30 13 16 1012.7 - 7.4
22/02:00am 14.0 12.5 13.2 95 0.4 N 13 17 7 9 1012.0 - 6.4
22/01:30am 13.9 12.0 13.1 95 0.4 NNE 15 17 8 9 1011.8 - 6.4
22/01:00am 14.0 13.7 13.2 95 0.4 N 7 11 4 6 1012.3 - 6.0
22/12:30am 14.1 13.0 13.1 94 0.6 NNE 11 15 6 8 1012.1 - 6.0
22/12:00am 14.3 13.6 13.2 93 0.6 NNW 9 15 5 8 1012.5 1012.2 5.8
 
Date/Time
EST
Temp
°C
App
Temp
°C
Dew
Point
Rel
Hum
%
Delta-T
°C
Wind Press
QNH
hPa
Press
MSL
hPa
Rain
since 9 am
mm
Dir
 
Spd
km/h
Gust
km/h
Spd
kts
Gust
kts
21/11:43pm 14.4 11.8 13.3 93 0.6 WNW 19 24 10 13 1013.1 - 5.6
21/11:30pm 14.4 14.0 13.1 92 0.7 ESE 7 20 4 11 1012.5 - 3.4
21/11:00pm 14.6 14.3 12.8 89 1.0 E 6 9 3 5 1012.5 - 3.4
21/10:54pm 14.7 14.4 12.7 88 1.1 SE 6 9 3 5 1012.4 - 3.4
21/10:36pm 15.1 14.3 12.8 86 1.3 W 9 13 5 7 1013.2 - 2.8

Other Formats:

Comma delimited format used in spreadsheet applications
http://www.bom.gov.au/fwo/IDV60801/IDV60801.94829.axf

JavaScript Object Notation format (JSON) in row-major order
http://www.bom.gov.au/fwo/IDV60801/IDV60801.94829.json